sensor_id;sensor_type;location;lat;lon;timestamp;P1;durP1;ratioP1;P2;durP2;ratioP2
50355;SDS011;36264;51.296;-0.602;2023-05-10T00:01:47;3.45;;;1.70;;
50355;SDS011;36264;51.296;-0.602;2023-05-10T00:04:12;3.25;;;1.50;;
50355;SDS011;36264;51.296;-0.602;2023-05-10T00:06:38;3.88;;;1.58;;
50355;SDS011;36264;51.296;-0.602;2023-05-10T01:08:32;5.38;;;1.90;;
50355;SDS011;36264;51.296;-0.602;2023-05-10T01:10:57;4.22;;;1.90;;
50355;SDS011;36264;51.296;-0.602;2023-05-10T01:13:45;5.28;;;2.10;;
50355;SDS011;36264;51.296;-0.602;2023-05-10T01:16:12;6.45;;;2.20;;
50355;SDS011;36264;51.296;-0.602;2023-05-10T01:18:38;6.53;;;2.65;;
50355;SDS011;36264;51.296;-0.602;2023-05-10T01:26:38;6.93;;;2.63;;
50355;SDS011;36264;51.296;-0.602;2023-05-10T01:32:02;5.03;;;2.60;;
50355;SDS011;36264;51.296;-0.602;2023-05-10T01:34:45;8.13;;;2.70;;
50355;SDS011;36264;51.296;-0.602;2023-05-10T01:37:20;5.30;;;2.50;;
50355;SDS011;36264;51.296;-0.602;2023-05-10T01:40:13;5.30;;;2.83;;
50355;SDS011;36264;51.296;-0.602;2023-05-10T01:42:55;5.43;;;2.53;;
50355;SDS011;36264;51.296;-0.602;2023-05-10T01:45:33;7.80;;;2.95;;
50355;SDS011;36264;51.296;-0.602;2023-05-10T01:48:05;5.13;;;2.42;;
50355;SDS011;36264;51.296;-0.602;2023-05-10T01:50:34;7.65;;;2.97;;
50355;SDS011;36264;51.296;-0.602;2023-05-10T01:53:01;5.90;;;2.85;;
50355;SDS011;36264;51.296;-0.602;2023-05-10T01:55:32;5.88;;;3.42;;
50355;SDS011;36264;51.296;-0.602;2023-05-10T01:58:07;7.53;;;3.17;;
50355;SDS011;36264;51.296;-0.602;2023-05-10T02:00:35;7.50;;;3.00;;
50355;SDS011;36264;51.296;-0.602;2023-05-10T02:03:05;7.38;;;3.47;;
50355;SDS011;36264;51.296;-0.602;2023-05-10T02:05:33;7.00;;;3.70;;
50355;SDS011;36264;51.296;-0.602;2023-05-10T03:07:29;6.72;;;2.67;;
50355;SDS011;36264;51.296;-0.602;2023-05-10T03:09:55;4.20;;;2.38;;
50355;SDS011;36264;51.296;-0.602;2023-05-10T03:12:30;6.32;;;3.22;;
50355;SDS011;36264;51.296;-0.602;2023-05-10T03:17:55;9.32;;;2.90;;
50355;SDS011;36264;51.296;-0.602;2023-05-10T03:20:25;7.85;;;3.15;;
50355;SDS011;36264;51.296;-0.602;2023-05-10T03:23:00;6.20;;;2.72;;
50355;SDS011;36264;51.296;-0.602;2023-05-10T03:25:31;11.60;;;3.25;;
50355;SDS011;36264;51.296;-0.602;2023-05-10T03:27:57;8.35;;;3.38;;
50355;SDS011;36264;51.296;-0.602;2023-05-10T03:30:24;6.43;;;3.10;;
50355;SDS011;36264;51.296;-0.602;2023-05-10T03:32:50;6.22;;;3.10;;
50355;SDS011;36264;51.296;-0.602;2023-05-10T03:35:16;6.53;;;2.80;;
50355;SDS011;36264;51.296;-0.602;2023-05-10T03:37:41;4.78;;;2.67;;
50355;SDS011;36264;51.296;-0.602;2023-05-10T03:40:07;5.10;;;2.80;;
50355;SDS011;36264;51.296;-0.602;2023-05-10T03:42:33;5.75;;;2.80;;
50355;SDS011;36264;51.296;-0.602;2023-05-10T03:44:59;6.20;;;2.63;;
50355;SDS011;36264;51.296;-0.602;2023-05-10T03:47:24;9.02;;;3.33;;
50355;SDS011;36264;51.296;-0.602;2023-05-10T03:49:50;6.82;;;2.85;;
50355;SDS011;36264;51.296;-0.602;2023-05-10T03:52:15;4.93;;;2.78;;
50355;SDS011;36264;51.296;-0.602;2023-05-10T03:54:41;6.28;;;2.97;;
50355;SDS011;36264;51.296;-0.602;2023-05-10T03:57:06;6.75;;;2.90;;
50355;SDS011;36264;51.296;-0.602;2023-05-10T03:59:32;4.50;;;2.60;;
50355;SDS011;36264;51.296;-0.602;2023-05-10T04:01:57;4.75;;;2.60;;
50355;SDS011;36264;51.296;-0.602;2023-05-10T04:04:22;4.65;;;2.80;;
50355;SDS011;36264;51.296;-0.602;2023-05-10T04:06:48;4.05;;;2.30;;
50355;SDS011;36264;51.296;-0.602;2023-05-10T04:09:14;5.05;;;2.80;;
50355;SDS011;36264;51.296;-0.602;2023-05-10T04:11:39;6.78;;;2.58;;
50355;SDS011;36264;51.296;-0.602;2023-05-10T04:14:05;4.85;;;2.60;;
50355;SDS011;36264;51.296;-0.602;2023-05-10T04:16:30;4.93;;;2.50;;
50355;SDS011;36264;51.296;-0.602;2023-05-10T04:18:56;4.85;;;2.78;;
50355;SDS011;36264;51.296;-0.602;2023-05-10T04:21:21;5.53;;;2.83;;
50355;SDS011;36264;51.296;-0.602;2023-05-10T04:23:47;7.82;;;3.38;;
50355;SDS011;36264;51.296;-0.602;2023-05-10T04:26:12;3.65;;;2.30;;
50355;SDS011;36264;51.296;-0.602;2023-05-10T04:28:38;4.43;;;2.50;;
50355;SDS011;36264;51.296;-0.602;2023-05-10T04:31:04;7.47;;;3.20;;
50355;SDS011;36264;51.296;-0.602;2023-05-10T04:33:31;6.20;;;2.80;;
50355;SDS011;36264;51.296;-0.602;2023-05-10T04:35:57;6.55;;;2.75;;
50355;SDS011;36264;51.296;-0.602;2023-05-10T05:37:52;8.23;;;3.35;;
50355;SDS011;36264;51.296;-0.602;2023-05-10T05:40:17;8.77;;;4.38;;
50355;SDS011;36264;51.296;-0.602;2023-05-10T05:42:43;10.20;;;4.65;;
50355;SDS011;36264;51.296;-0.602;2023-05-10T05:45:08;11.48;;;4.53;;
50355;SDS011;36264;51.296;-0.602;2023-05-10T05:47:37;8.88;;;4.07;;
50355;SDS011;36264;51.296;-0.602;2023-05-10T05:50:03;10.20;;;4.28;;
50355;SDS011;36264;51.296;-0.602;2023-05-10T05:52:29;7.82;;;4.47;;
50355;SDS011;36264;51.296;-0.602;2023-05-10T05:54:55;8.68;;;3.92;;
50355;SDS011;36264;51.296;-0.602;2023-05-10T05:57:20;10.35;;;4.40;;
50355;SDS011;36264;51.296;-0.602;2023-05-10T05:59:46;11.90;;;4.45;;
50355;SDS011;36264;51.296;-0.602;2023-05-10T06:02:12;8.40;;;4.28;;
50355;SDS011;36264;51.296;-0.602;2023-05-10T06:04:37;9.75;;;4.03;;
50355;SDS011;36264;51.296;-0.602;2023-05-10T06:07:03;10.20;;;4.32;;
50355;SDS011;36264;51.296;-0.602;2023-05-10T06:09:28;11.88;;;4.53;;
50355;SDS011;36264;51.296;-0.602;2023-05-10T06:11:53;9.13;;;4.63;;
50355;SDS011;36264;51.296;-0.602;2023-05-10T06:14:22;9.38;;;4.70;;
50355;SDS011;36264;51.296;-0.602;2023-05-10T06:16:47;10.82;;;4.45;;
50355;SDS011;36264;51.296;-0.602;2023-05-10T06:19:13;11.15;;;4.70;;
50355;SDS011;36264;51.296;-0.602;2023-05-10T06:21:38;8.60;;;4.18;;
50355;SDS011;36264;51.296;-0.602;2023-05-10T06:24:04;9.90;;;4.43;;
50355;SDS011;36264;51.296;-0.602;2023-05-10T06:26:31;10.05;;;4.47;;
50355;SDS011;36264;51.296;-0.602;2023-05-10T06:28:57;10.38;;;5.60;;
50355;SDS011;36264;51.296;-0.602;2023-05-10T06:31:22;10.57;;;5.28;;
50355;SDS011;36264;51.296;-0.602;2023-05-10T06:33:48;10.02;;;4.90;;
50355;SDS011;36264;51.296;-0.602;2023-05-10T06:36:13;10.25;;;5.20;;
50355;SDS011;36264;51.296;-0.602;2023-05-10T07:38:08;11.88;;;6.22;;
50355;SDS011;36264;51.296;-0.602;2023-05-10T07:40:33;9.75;;;5.70;;
50355;SDS011;36264;51.296;-0.602;2023-05-10T07:42:59;11.57;;;5.82;;
50355;SDS011;36264;51.296;-0.602;2023-05-10T07:45:27;11.85;;;6.50;;
50355;SDS011;36264;51.296;-0.602;2023-05-10T07:47:53;12.23;;;6.13;;
50355;SDS011;36264;51.296;-0.602;2023-05-10T07:50:18;11.43;;;6.50;;
50355;SDS011;36264;51.296;-0.602;2023-05-10T07:52:44;10.90;;;6.35;;
50355;SDS011;36264;51.296;-0.602;2023-05-10T07:55:09;10.98;;;6.68;;
50355;SDS011;36264;51.296;-0.602;2023-05-10T07:57:35;12.50;;;6.22;;
50355;SDS011;36264;51.296;-0.602;2023-05-10T08:00:01;13.60;;;6.80;;
50355;SDS011;36264;51.296;-0.602;2023-05-10T08:02:27;11.73;;;6.88;;
50355;SDS011;36264;51.296;-0.602;2023-05-10T08:04:52;9.98;;;6.30;;
50355;SDS011;36264;51.296;-0.602;2023-05-10T08:07:17;12.80;;;6.75;;
50355;SDS011;36264;51.296;-0.602;2023-05-10T08:09:43;11.48;;;6.40;;
50355;SDS011;36264;51.296;-0.602;2023-05-10T08:12:08;9.25;;;6.00;;
50355;SDS011;36264;51.296;-0.602;2023-05-10T08:14:34;12.10;;;5.88;;
50355;SDS011;36264;51.296;-0.602;2023-05-10T08:17:01;9.55;;;5.78;;
50355;SDS011;36264;51.296;-0.602;2023-05-10T08:19:27;10.38;;;6.10;;
50355;SDS011;36264;51.296;-0.602;2023-05-10T08:21:52;8.60;;;4.82;;
50355;SDS011;36264;51.296;-0.602;2023-05-10T08:24:18;7.85;;;5.43;;
50355;SDS011;36264;51.296;-0.602;2023-05-10T08:26:44;9.48;;;5.40;;
50355;SDS011;36264;51.296;-0.602;2023-05-10T08:29:09;9.73;;;5.47;;
50355;SDS011;36264;51.296;-0.602;2023-05-10T08:31:35;8.23;;;4.82;;
50355;SDS011;36264;51.296;-0.602;2023-05-10T08:34:00;9.68;;;4.60;;
50355;SDS011;36264;51.296;-0.602;2023-05-10T08:36:25;9.68;;;6.55;;
50355;SDS011;36264;51.296;-0.602;2023-05-10T12:09:30;6.97;;;2.05;;
50355;SDS011;36264;51.296;-0.602;2023-05-10T12:11:56;5.82;;;2.10;;
50355;SDS011;36264;51.296;-0.602;2023-05-10T12:14:24;5.32;;;1.88;;
50355;SDS011;36264;51.296;-0.602;2023-05-10T12:16:49;5.53;;;2.00;;
50355;SDS011;36264;51.296;-0.602;2023-05-10T12:19:18;5.47;;;2.50;;
50355;SDS011;36264;51.296;-0.602;2023-05-10T12:21:45;7.25;;;2.75;;
50355;SDS011;36264;51.296;-0.602;2023-05-10T12:24:10;6.90;;;2.05;;
50355;SDS011;36264;51.296;-0.602;2023-05-10T12:26:36;8.05;;;2.63;;
50355;SDS011;36264;51.296;-0.602;2023-05-10T12:29:11;5.25;;;2.22;;
50355;SDS011;36264;51.296;-0.602;2023-05-10T12:34:23;7.07;;;2.25;;
50355;SDS011;36264;51.296;-0.602;2023-05-10T12:36:51;5.15;;;1.95;;
50355;SDS011;36264;51.296;-0.602;2023-05-10T12:39:17;5.05;;;1.80;;
50355;SDS011;36264;51.296;-0.602;2023-05-10T12:41:42;4.40;;;1.85;;
50355;SDS011;36264;51.296;-0.602;2023-05-10T12:44:08;3.58;;;1.60;;
50355;SDS011;36264;51.296;-0.602;2023-05-10T12:46:33;3.47;;;1.73;;
50355;SDS011;36264;51.296;-0.602;2023-05-10T12:48:58;3.75;;;1.75;;
50355;SDS011;36264;51.296;-0.602;2023-05-10T12:51:24;3.80;;;1.85;;
50355;SDS011;36264;51.296;-0.602;2023-05-10T12:53:49;6.88;;;2.00;;
50355;SDS011;36264;51.296;-0.602;2023-05-10T12:56:15;3.40;;;1.60;;
50355;SDS011;36264;51.296;-0.602;2023-05-10T12:58:40;3.20;;;1.80;;
50355;SDS011;36264;51.296;-0.602;2023-05-10T13:01:05;4.10;;;1.58;;
50355;SDS011;36264;51.296;-0.602;2023-05-10T13:03:31;3.38;;;1.70;;
50355;SDS011;36264;51.296;-0.602;2023-05-10T13:05:57;4.88;;;1.60;;
50355;SDS011;36264;51.296;-0.602;2023-05-10T13:08:22;2.40;;;1.40;;
50355;SDS011;36264;51.296;-0.602;2023-05-10T13:10:48;2.60;;;1.58;;
50355;SDS011;36264;51.296;-0.602;2023-05-10T13:13:13;4.88;;;1.95;;
50355;SDS011;36264;51.296;-0.602;2023-05-10T13:15:40;4.05;;;1.80;;
50355;SDS011;36264;51.296;-0.602;2023-05-10T13:18:05;4.40;;;1.67;;
50355;SDS011;36264;51.296;-0.602;2023-05-10T13:20:30;5.40;;;1.80;;
50355;SDS011;36264;51.296;-0.602;2023-05-10T13:22:56;4.88;;;1.70;;
50355;SDS011;36264;51.296;-0.602;2023-05-10T13:25:21;5.80;;;1.90;;
50355;SDS011;36264;51.296;-0.602;2023-05-10T13:27:47;4.65;;;1.70;;
50355;SDS011;36264;51.296;-0.602;2023-05-10T13:30:12;5.20;;;1.70;;
50355;SDS011;36264;51.296;-0.602;2023-05-10T13:32:37;4.88;;;1.80;;
50355;SDS011;36264;51.296;-0.602;2023-05-10T13:35:03;4.50;;;1.88;;
50355;SDS011;36264;51.296;-0.602;2023-05-10T13:37:29;4.93;;;2.08;;
50355;SDS011;36264;51.296;-0.602;2023-05-10T13:39:56;4.35;;;1.80;;
50355;SDS011;36264;51.296;-0.602;2023-05-10T13:42:21;3.47;;;1.80;;
50355;SDS011;36264;51.296;-0.602;2023-05-10T13:44:48;4.43;;;1.98;;
50355;SDS011;36264;51.296;-0.602;2023-05-10T13:47:13;5.47;;;1.60;;
50355;SDS011;36264;51.296;-0.602;2023-05-10T13:49:39;4.97;;;2.10;;
50355;SDS011;36264;51.296;-0.602;2023-05-10T13:52:04;3.70;;;1.90;;
50355;SDS011;36264;51.296;-0.602;2023-05-10T13:54:32;4.15;;;2.03;;
50355;SDS011;36264;51.296;-0.602;2023-05-10T13:56:58;4.13;;;2.13;;
50355;SDS011;36264;51.296;-0.602;2023-05-10T13:59:24;3.47;;;1.60;;
50355;SDS011;36264;51.296;-0.602;2023-05-10T14:01:50;3.53;;;1.52;;
50355;SDS011;36264;51.296;-0.602;2023-05-10T14:04:15;3.03;;;1.58;;
50355;SDS011;36264;51.296;-0.602;2023-05-10T14:06:41;2.85;;;1.40;;
50355;SDS011;36264;51.296;-0.602;2023-05-10T14:09:06;3.30;;;1.67;;
50355;SDS011;36264;51.296;-0.602;2023-05-10T14:11:31;3.00;;;1.40;;
50355;SDS011;36264;51.296;-0.602;2023-05-10T14:13:57;4.40;;;1.35;;
50355;SDS011;36264;51.296;-0.602;2023-05-10T14:16:22;3.40;;;1.50;;
50355;SDS011;36264;51.296;-0.602;2023-05-10T14:18:47;3.17;;;1.58;;
50355;SDS011;36264;51.296;-0.602;2023-05-10T14:21:13;4.20;;;1.63;;
50355;SDS011;36264;51.296;-0.602;2023-05-10T14:23:38;4.53;;;1.80;;
50355;SDS011;36264;51.296;-0.602;2023-05-10T14:26:04;3.83;;;1.77;;
50355;SDS011;36264;51.296;-0.602;2023-05-10T14:28:29;3.70;;;1.98;;
50355;SDS011;36264;51.296;-0.602;2023-05-10T14:30:55;2.90;;;1.40;;
50355;SDS011;36264;51.296;-0.602;2023-05-10T14:33:20;5.15;;;1.70;;
50355;SDS011;36264;51.296;-0.602;2023-05-10T14:35:46;3.75;;;1.50;;
50355;SDS011;36264;51.296;-0.602;2023-05-10T14:38:11;3.40;;;1.58;;
50355;SDS011;36264;51.296;-0.602;2023-05-10T14:40:37;4.07;;;1.65;;
50355;SDS011;36264;51.296;-0.602;2023-05-10T14:43:03;3.95;;;2.15;;
50355;SDS011;36264;51.296;-0.602;2023-05-10T14:45:28;3.20;;;1.50;;
50355;SDS011;36264;51.296;-0.602;2023-05-10T14:47:53;4.20;;;1.70;;
50355;SDS011;36264;51.296;-0.602;2023-05-10T14:50:19;4.75;;;1.60;;
50355;SDS011;36264;51.296;-0.602;2023-05-10T14:52:44;3.50;;;1.80;;
50355;SDS011;36264;51.296;-0.602;2023-05-10T14:55:10;4.15;;;1.90;;
50355;SDS011;36264;51.296;-0.602;2023-05-10T14:57:35;4.90;;;1.70;;
50355;SDS011;36264;51.296;-0.602;2023-05-10T15:00:01;6.95;;;1.75;;
50355;SDS011;36264;51.296;-0.602;2023-05-10T15:02:27;5.40;;;1.80;;
50355;SDS011;36264;51.296;-0.602;2023-05-10T15:04:52;4.43;;;1.52;;
50355;SDS011;36264;51.296;-0.602;2023-05-10T15:07:18;3.95;;;2.20;;
50355;SDS011;36264;51.296;-0.602;2023-05-10T15:09:44;3.63;;;1.63;;
50355;SDS011;36264;51.296;-0.602;2023-05-10T15:12:09;3.78;;;1.75;;
50355;SDS011;36264;51.296;-0.602;2023-05-10T15:14:35;4.22;;;1.83;;
50355;SDS011;36264;51.296;-0.602;2023-05-10T15:17:01;4.75;;;2.03;;
50355;SDS011;36264;51.296;-0.602;2023-05-10T15:19:27;7.25;;;2.53;;
50355;SDS011;36264;51.296;-0.602;2023-05-10T15:21:54;4.93;;;1.88;;
50355;SDS011;36264;51.296;-0.602;2023-05-10T15:24:20;4.88;;;1.83;;
50355;SDS011;36264;51.296;-0.602;2023-05-10T15:26:45;4.90;;;1.65;;
50355;SDS011;36264;51.296;-0.602;2023-05-10T15:29:11;4.55;;;1.52;;
50355;SDS011;36264;51.296;-0.602;2023-05-10T15:31:36;5.28;;;2.22;;
50355;SDS011;36264;51.296;-0.602;2023-05-10T15:34:02;4.35;;;1.65;;
50355;SDS011;36264;51.296;-0.602;2023-05-10T15:36:27;6.10;;;1.80;;
50355;SDS011;36264;51.296;-0.602;2023-05-10T15:38:53;3.70;;;1.70;;
50355;SDS011;36264;51.296;-0.602;2023-05-10T15:41:18;5.32;;;2.03;;
50355;SDS011;36264;51.296;-0.602;2023-05-10T15:43:44;4.82;;;1.80;;
50355;SDS011;36264;51.296;-0.602;2023-05-10T15:46:09;6.60;;;2.00;;
50355;SDS011;36264;51.296;-0.602;2023-05-10T15:48:35;3.75;;;1.60;;
50355;SDS011;36264;51.296;-0.602;2023-05-10T15:51:00;5.72;;;1.98;;
50355;SDS011;36264;51.296;-0.602;2023-05-10T15:53:25;4.60;;;1.60;;
50355;SDS011;36264;51.296;-0.602;2023-05-10T15:55:51;5.82;;;1.90;;
50355;SDS011;36264;51.296;-0.602;2023-05-10T15:58:16;3.60;;;1.70;;
50355;SDS011;36264;51.296;-0.602;2023-05-10T16:00:43;5.13;;;1.55;;
50355;SDS011;36264;51.296;-0.602;2023-05-10T16:03:08;3.75;;;1.45;;
50355;SDS011;36264;51.296;-0.602;2023-05-10T16:05:33;4.47;;;1.88;;
50355;SDS011;36264;51.296;-0.602;2023-05-10T16:07:59;3.97;;;1.73;;
50355;SDS011;36264;51.296;-0.602;2023-05-10T16:10:25;3.03;;;1.60;;
50355;SDS011;36264;51.296;-0.602;2023-05-10T16:12:52;4.35;;;1.90;;
50355;SDS011;36264;51.296;-0.602;2023-05-10T16:15:18;6.43;;;1.80;;
50355;SDS011;36264;51.296;-0.602;2023-05-10T16:17:45;4.35;;;1.58;;
50355;SDS011;36264;51.296;-0.602;2023-05-10T16:20:11;5.68;;;1.85;;
50355;SDS011;36264;51.296;-0.602;2023-05-10T16:22:37;3.88;;;1.58;;
50355;SDS011;36264;51.296;-0.602;2023-05-10T16:25:03;4.10;;;1.60;;
50355;SDS011;36264;51.296;-0.602;2023-05-10T16:27:29;4.18;;;1.70;;
50355;SDS011;36264;51.296;-0.602;2023-05-10T16:29:57;7.20;;;2.00;;
50355;SDS011;36264;51.296;-0.602;2023-05-10T16:32:24;5.05;;;1.92;;
50355;SDS011;36264;51.296;-0.602;2023-05-10T16:34:49;5.40;;;1.90;;
50355;SDS011;36264;51.296;-0.602;2023-05-10T16:37:17;6.13;;;2.00;;
50355;SDS011;36264;51.296;-0.602;2023-05-10T16:39:43;7.00;;;1.70;;
50355;SDS011;36264;51.296;-0.602;2023-05-10T16:42:09;3.67;;;1.73;;
50355;SDS011;36264;51.296;-0.602;2023-05-10T16:44:36;4.57;;;1.80;;
50355;SDS011;36264;51.296;-0.602;2023-05-10T16:47:02;3.80;;;1.67;;
50355;SDS011;36264;51.296;-0.602;2023-05-10T16:49:27;3.17;;;1.60;;
50355;SDS011;36264;51.296;-0.602;2023-05-10T16:51:55;4.15;;;1.75;;
50355;SDS011;36264;51.296;-0.602;2023-05-10T16:54:21;4.40;;;1.70;;
50355;SDS011;36264;51.296;-0.602;2023-05-10T16:56:49;2.85;;;1.40;;
50355;SDS011;36264;51.296;-0.602;2023-05-10T16:59:16;4.28;;;1.70;;
50355;SDS011;36264;51.296;-0.602;2023-05-10T17:01:42;3.70;;;1.40;;
50355;SDS011;36264;51.296;-0.602;2023-05-10T17:04:07;3.60;;;1.58;;
50355;SDS011;36264;51.296;-0.602;2023-05-10T17:06:34;5.18;;;1.80;;
50355;SDS011;36264;51.296;-0.602;2023-05-10T17:09:00;4.32;;;1.60;;
50355;SDS011;36264;51.296;-0.602;2023-05-10T17:11:29;3.60;;;1.70;;
50355;SDS011;36264;51.296;-0.602;2023-05-10T17:13:57;5.53;;;1.70;;
50355;SDS011;36264;51.296;-0.602;2023-05-10T17:16:23;2.38;;;1.55;;
50355;SDS011;36264;51.296;-0.602;2023-05-10T17:18:49;3.05;;;1.45;;
50355;SDS011;36264;51.296;-0.602;2023-05-10T17:21:15;3.58;;;1.52;;
50355;SDS011;36264;51.296;-0.602;2023-05-10T17:23:41;4.10;;;1.50;;
50355;SDS011;36264;51.296;-0.602;2023-05-10T17:26:08;4.30;;;1.55;;
50355;SDS011;36264;51.296;-0.602;2023-05-10T17:28:34;2.80;;;1.30;;
50355;SDS011;36264;51.296;-0.602;2023-05-10T17:31:00;3.20;;;1.33;;
50355;SDS011;36264;51.296;-0.602;2023-05-10T17:33:26;4.72;;;1.25;;
50355;SDS011;36264;51.296;-0.602;2023-05-10T17:35:52;2.92;;;1.30;;
50355;SDS011;36264;51.296;-0.602;2023-05-10T17:38:19;2.50;;;1.25;;
50355;SDS011;36264;51.296;-0.602;2023-05-10T17:40:45;2.83;;;1.20;;
50355;SDS011;36264;51.296;-0.602;2023-05-10T17:43:10;3.10;;;1.27;;
50355;SDS011;36264;51.296;-0.602;2023-05-10T17:45:36;2.00;;;1.08;;
50355;SDS011;36264;51.296;-0.602;2023-05-10T17:48:02;3.00;;;1.10;;
50355;SDS011;36264;51.296;-0.602;2023-05-10T17:50:28;2.70;;;1.30;;
50355;SDS011;36264;51.296;-0.602;2023-05-10T17:52:55;1.77;;;1.10;;
50355;SDS011;36264;51.296;-0.602;2023-05-10T17:55:21;3.67;;;1.00;;
50355;SDS011;36264;51.296;-0.602;2023-05-10T17:57:47;2.30;;;1.02;;
50355;SDS011;36264;51.296;-0.602;2023-05-10T18:00:13;2.22;;;1.13;;
50355;SDS011;36264;51.296;-0.602;2023-05-10T18:02:40;2.25;;;1.25;;
50355;SDS011;36264;51.296;-0.602;2023-05-10T18:05:06;2.55;;;1.00;;
50355;SDS011;36264;51.296;-0.602;2023-05-10T18:07:32;3.97;;;1.17;;
50355;SDS011;36264;51.296;-0.602;2023-05-10T18:09:59;1.17;;;0.90;;
50355;SDS011;36264;51.296;-0.602;2023-05-10T18:12:25;2.65;;;1.20;;
50355;SDS011;36264;51.296;-0.602;2023-05-10T18:14:51;3.00;;;1.48;;
50355;SDS011;36264;51.296;-0.602;2023-05-10T18:17:17;2.42;;;1.65;;
50355;SDS011;36264;51.296;-0.602;2023-05-10T18:19:42;4.80;;;2.20;;
50355;SDS011;36264;51.296;-0.602;2023-05-10T18:22:08;4.55;;;1.60;;
50355;SDS011;36264;51.296;-0.602;2023-05-10T18:24:33;2.53;;;1.25;;
50355;SDS011;36264;51.296;-0.602;2023-05-10T18:26:59;5.00;;;1.60;;
50355;SDS011;36264;51.296;-0.602;2023-05-10T18:29:26;1.75;;;1.20;;
50355;SDS011;36264;51.296;-0.602;2023-05-10T18:31:51;3.30;;;1.45;;
50355;SDS011;36264;51.296;-0.602;2023-05-10T18:34:16;1.98;;;1.20;;
50355;SDS011;36264;51.296;-0.602;2023-05-10T18:36:43;2.72;;;1.20;;
